Terminal Aerodrome Forecast
Issued by NWS Sterling, VA

Current Version | Previous Version | Graphics & Text | Print | Product List | Glossary On
Versions: 1 2 3 4 5 6 7 8 9 10 11 12 13 14 15 16 17 18 19 20 21 22
000
FTUS41 KLWX 242320
TAFIAD
TAF
KIAD 242320Z 2500/2606 16007KT P6SM FEW200
     FM250300 17008KT P6SM SCT025
     FM250400 17008KT P6SM BKN025
     FM250500 17008KT P6SM BKN015
     FM251500 17012KT 1 1/2SM -SHRA BKN015
     FM251800 19013G21KT 3SM -SHRA OVC030
     FM252100 29017G26KT P6SM OVC045
     FM252300 29018G28KT P6SM SCT250=

USA.gov is the U.S. government's official web portal to all federal, state and local government web resources and services.